createdAt,value
2019-05-25T00:01:23.542Z,2.22
2019-05-25T00:03:51.146Z,1.80
2019-05-25T00:06:18.663Z,2.05
2019-05-25T00:08:46.450Z,2.42
2019-05-25T00:11:14.025Z,2.30
2019-05-25T00:13:41.572Z,1.90
2019-05-25T00:16:09.171Z,2.42
2019-05-25T00:18:36.686Z,2.58
2019-05-25T00:21:04.210Z,2.10
2019-05-25T00:23:31.704Z,2.08
2019-05-25T00:25:59.651Z,1.92
2019-05-25T00:28:27.462Z,2.47
2019-05-25T00:30:55.072Z,2.60
2019-05-25T00:33:22.638Z,2.50
2019-05-25T00:35:50.144Z,2.62
2019-05-25T00:38:17.693Z,2.52
2019-05-25T00:40:45.193Z,2.87
2019-05-25T00:43:13.017Z,2.62
2019-05-25T00:45:40.448Z,3.58
2019-05-25T00:48:08.029Z,3.33
2019-05-25T00:50:35.789Z,2.83
2019-05-25T00:53:03.385Z,3.17
2019-05-25T00:55:30.903Z,3.00
2019-05-25T00:57:58.681Z,3.20
2019-05-25T01:00:26.964Z,2.80
2019-05-25T01:02:54.430Z,3.08
2019-05-25T01:05:22.035Z,3.17
2019-05-25T01:07:49.871Z,2.90
2019-05-25T01:10:17.573Z,3.67
2019-05-25T01:12:45.105Z,3.15
2019-05-25T01:15:13.303Z,4.10
2019-05-25T01:17:40.755Z,3.50
2019-05-25T01:20:09.140Z,3.77
2019-05-25T01:22:36.580Z,3.55
2019-05-25T01:25:04.847Z,3.37
2019-05-25T01:27:32.558Z,3.00
2019-05-25T01:30:00.121Z,3.70
2019-05-25T01:32:27.648Z,3.50
2019-05-25T01:34:55.180Z,3.60
2019-05-25T01:37:22.748Z,2.80
2019-05-25T01:39:50.357Z,2.42
2019-05-25T01:42:18.149Z,2.77
2019-05-25T01:44:45.709Z,2.50
2019-05-25T01:47:13.564Z,3.10
2019-05-25T01:49:41.085Z,3.15
2019-05-25T01:52:08.598Z,2.80
2019-05-25T01:54:36.042Z,2.90
2019-05-25T01:57:03.620Z,2.70
2019-05-25T01:59:31.611Z,2.95
2019-05-25T02:01:59.329Z,2.60
2019-05-25T02:04:26.906Z,3.20
2019-05-25T02:06:54.472Z,2.60
2019-05-25T02:09:22.021Z,3.10
2019-05-25T02:11:49.622Z,2.85
2019-05-25T02:14:17.152Z,3.15
2019-05-25T02:16:44.762Z,3.33
2019-05-25T02:19:12.168Z,3.40
2019-05-25T02:21:39.866Z,3.80
2019-05-25T02:24:07.298Z,3.22
2019-05-25T02:26:35.019Z,3.62
2019-05-25T02:29:02.950Z,4.00
2019-05-25T02:31:30.475Z,3.72
2019-05-25T02:33:57.907Z,3.65
2019-05-25T02:36:25.435Z,3.92
2019-05-25T02:38:52.971Z,3.50
2019-05-25T02:41:20.945Z,3.83
2019-05-25T02:43:48.504Z,3.33
2019-05-25T02:46:16.031Z,4.03
2019-05-25T02:48:43.541Z,4.08
2019-05-25T02:51:11.080Z,3.98
2019-05-25T02:53:38.588Z,3.92
2019-05-25T02:56:06.144Z,3.62
2019-05-25T02:58:33.661Z,3.08
2019-05-25T03:01:01.561Z,3.30
2019-05-25T03:03:29.140Z,3.00
2019-05-25T03:05:57.275Z,3.20
2019-05-25T03:08:24.843Z,2.92
2019-05-25T03:10:53.029Z,3.00
2019-05-25T03:13:20.875Z,3.15
2019-05-25T03:15:48.348Z,3.10
2019-05-25T03:18:16.097Z,2.60
2019-05-25T03:20:43.702Z,3.08
2019-05-25T03:23:11.175Z,2.85
2019-05-25T03:25:49.255Z,2.92
2019-05-25T03:28:08.402Z,2.92
2019-05-25T03:30:36.697Z,3.02
2019-05-25T03:33:04.774Z,3.02
2019-05-25T03:35:32.404Z,3.20
2019-05-25T03:38:00.077Z,2.83
2019-05-25T03:40:28.853Z,2.85
2019-05-25T03:42:56.361Z,2.90
2019-05-25T03:45:23.854Z,2.70
2019-05-25T03:47:51.486Z,2.87
2019-05-25T03:50:19.349Z,3.60
2019-05-25T03:52:46.986Z,3.40
2019-05-25T03:55:14.564Z,3.58
2019-05-25T03:57:42.310Z,3.42
2019-05-25T04:00:10.215Z,3.30
2019-05-25T04:02:37.813Z,3.33
2019-05-25T04:05:05.312Z,3.20
2019-05-25T04:07:32.890Z,3.25
2019-05-25T04:10:00.402Z,3.30
2019-05-25T04:12:27.953Z,3.17
2019-05-25T04:14:55.805Z,3.10
2019-05-25T04:17:23.458Z,3.45
2019-05-25T04:19:51.051Z,2.80
2019-05-25T04:22:18.593Z,2.95
2019-05-25T04:24:46.125Z,3.27
2019-05-25T04:27:13.848Z,3.30
2019-05-25T04:29:41.404Z,3.15
2019-05-25T04:32:08.939Z,2.95
2019-05-25T04:34:36.478Z,5.03
2019-05-25T04:37:04.337Z,2.62
2019-05-25T04:39:31.838Z,2.87
2019-05-25T04:41:59.551Z,2.95
2019-05-25T04:44:27.105Z,3.40
2019-05-25T04:46:54.593Z,2.80
2019-05-25T04:49:22.137Z,2.58
2019-05-25T04:51:50.469Z,2.47
2019-05-25T04:54:18.537Z,3.10
2019-05-25T04:56:46.385Z,2.70
2019-05-25T04:59:13.947Z,2.98
2019-05-25T05:01:41.532Z,3.33
2019-05-25T05:04:09.069Z,2.85
2019-05-25T05:06:36.510Z,2.42
2019-05-25T05:09:05.842Z,2.33
2019-05-25T05:11:33.411Z,2.95
2019-05-25T05:14:00.935Z,2.77
2019-05-25T05:16:28.452Z,2.98
2019-05-25T05:18:55.986Z,3.15
2019-05-25T05:21:23.544Z,3.10
2019-05-25T05:23:50.973Z,3.75
2019-05-25T05:26:18.587Z,2.65
2019-05-25T05:28:49.060Z,2.50
2019-05-25T05:31:23.421Z,3.42
2019-05-25T05:33:46.271Z,4.42
2019-05-25T05:36:14.540Z,3.10
2019-05-25T05:38:42.969Z,2.70
2019-05-25T05:41:11.929Z,2.83
2019-05-25T05:43:42.547Z,2.70
2019-05-25T05:46:12.433Z,2.90
2019-05-25T05:48:40.382Z,2.62
2019-05-25T05:51:10.409Z,2.45
2019-05-25T05:53:39.260Z,3.00
2019-05-25T05:56:06.797Z,2.37
2019-05-25T05:58:34.341Z,2.60
2019-05-25T06:01:02.034Z,2.72
2019-05-25T06:03:29.899Z,4.00
2019-05-25T06:05:57.573Z,3.25
2019-05-25T06:08:25.412Z,3.80
2019-05-25T06:10:53.196Z,3.83
2019-05-25T06:13:21.485Z,3.12
2019-05-25T06:15:49.304Z,3.70
2019-05-25T06:18:17.031Z,3.47
2019-05-25T06:20:44.574Z,3.37
2019-05-25T06:23:12.743Z,3.52
2019-05-25T06:25:40.275Z,3.27
2019-05-25T06:28:08.123Z,3.33
2019-05-25T06:30:35.719Z,3.40
2019-05-25T06:33:03.267Z,3.20
2019-05-25T06:35:30.825Z,3.27
2019-05-25T06:37:58.685Z,3.42
2019-05-25T06:40:26.611Z,3.20
2019-05-25T06:42:54.366Z,3.10
2019-05-25T06:45:22.091Z,3.37
2019-05-25T06:47:49.909Z,3.35
2019-05-25T06:50:18.231Z,3.10
2019-05-25T06:52:45.790Z,3.17
2019-05-25T06:55:13.903Z,2.90
2019-05-25T06:57:44.090Z,3.30
2019-05-25T07:00:12.155Z,2.75
2019-05-25T07:02:39.773Z,3.22
2019-05-25T07:05:07.984Z,3.25
2019-05-25T07:07:35.441Z,3.55
2019-05-25T07:10:03.552Z,4.33
2019-05-25T07:12:31.490Z,6.60
2019-05-25T07:14:59.265Z,4.45
2019-05-25T07:17:26.887Z,3.85
2019-05-25T07:19:54.889Z,4.22
2019-05-25T07:22:22.569Z,3.85
2019-05-25T07:24:50.928Z,3.42
2019-05-25T07:27:19.159Z,3.52
2019-05-25T07:29:46.546Z,3.35
2019-05-25T07:32:14.417Z,2.90
2019-05-25T07:34:41.928Z,3.27
2019-05-25T07:37:09.773Z,2.90
2019-05-25T07:39:37.459Z,3.40
2019-05-25T07:42:05.043Z,3.98
2019-05-25T07:44:32.984Z,3.42
2019-05-25T07:47:00.523Z,3.35
2019-05-25T07:49:28.130Z,3.40
2019-05-25T07:51:55.877Z,3.33
2019-05-25T07:54:23.401Z,3.25
2019-05-25T07:56:51.255Z,3.30
2019-05-25T07:59:19.043Z,3.27
2019-05-25T08:01:47.139Z,3.15
2019-05-25T08:04:14.743Z,3.22
2019-05-25T08:06:42.360Z,3.30
2019-05-25T08:09:10.194Z,3.35
2019-05-25T08:11:37.620Z,2.98
2019-05-25T08:14:05.520Z,3.77
2019-05-25T08:16:32.951Z,3.47
2019-05-25T08:19:00.551Z,3.42
2019-05-25T08:21:28.399Z,3.55
2019-05-25T08:23:56.260Z,3.42
2019-05-25T08:26:23.770Z,3.20
2019-05-25T08:28:51.479Z,3.33
2019-05-25T08:31:19.396Z,3.67
2019-05-25T08:33:47.147Z,3.08
2019-05-25T08:36:15.083Z,3.20
2019-05-25T08:38:42.536Z,3.47
2019-05-25T08:41:10.060Z,3.55
2019-05-25T08:43:37.605Z,2.52
2019-05-25T08:46:05.605Z,3.10
2019-05-25T08:48:33.379Z,2.87
2019-05-25T08:51:01.133Z,2.75
2019-05-25T08:53:40.524Z,2.92
2019-05-25T08:55:58.674Z,2.62
2019-05-25T08:58:26.083Z,2.85
2019-05-25T09:00:54.211Z,2.60
2019-05-25T09:03:21.809Z,2.92
2019-05-25T09:05:49.340Z,2.95
2019-05-25T09:08:16.924Z,2.37
2019-05-25T09:10:44.736Z,2.25
2019-05-25T09:13:12.319Z,2.33
2019-05-25T09:15:40.150Z,2.67
2019-05-25T09:18:07.785Z,2.77
2019-05-25T09:20:35.985Z,2.62
2019-05-25T09:23:03.935Z,2.42
2019-05-25T09:25:34.565Z,2.30
2019-05-25T09:28:02.109Z,2.70
2019-05-25T09:30:29.723Z,2.10
2019-05-25T09:32:57.274Z,2.72
2019-05-25T09:35:25.245Z,2.67
2019-05-25T09:37:53.135Z,2.75
2019-05-25T09:40:21.694Z,2.22
2019-05-25T09:42:49.822Z,2.77
2019-05-25T09:45:17.956Z,2.12
2019-05-25T09:47:46.095Z,2.52
2019-05-25T09:50:14.062Z,1.98
2019-05-25T09:52:41.499Z,2.20
2019-05-25T09:55:09.925Z,1.82
2019-05-25T09:57:41.352Z,2.42
2019-05-25T10:00:08.783Z,1.90
2019-05-25T10:02:36.380Z,1.75
2019-05-25T10:05:04.469Z,2.30
2019-05-25T10:07:32.498Z,2.15
2019-05-25T10:10:00.479Z,2.30
2019-05-25T10:12:28.111Z,1.92
2019-05-25T10:14:55.681Z,2.00
2019-05-25T10:17:23.275Z,1.42
2019-05-25T10:19:51.214Z,1.85
2019-05-25T10:22:18.779Z,1.65
2019-05-25T10:24:46.347Z,1.72
2019-05-25T10:27:14.910Z,1.98
2019-05-25T10:29:43.250Z,1.52
2019-05-25T10:32:10.806Z,1.80
2019-05-25T10:34:38.339Z,1.50
2019-05-25T10:37:06.275Z,1.77
2019-05-25T10:39:34.111Z,1.40
2019-05-25T10:42:01.728Z,1.70
2019-05-25T10:44:29.219Z,1.87
2019-05-25T10:46:57.020Z,2.12
2019-05-25T10:49:24.960Z,1.95
2019-05-25T10:51:52.626Z,1.32
2019-05-25T10:54:20.206Z,1.37
2019-05-25T10:56:47.717Z,1.50
2019-05-25T10:59:15.640Z,1.65
2019-05-25T11:01:43.610Z,1.27
2019-05-25T11:04:11.508Z,1.22
2019-05-25T11:06:39.137Z,1.50
2019-05-25T11:09:06.694Z,1.42
2019-05-25T11:11:34.220Z,1.40
2019-05-25T11:14:01.733Z,1.70
2019-05-25T11:16:29.496Z,1.40
2019-05-25T11:18:57.079Z,1.50
2019-05-25T11:21:24.620Z,1.27
2019-05-25T11:23:52.080Z,1.30
2019-05-25T11:26:19.837Z,1.22
2019-05-25T11:28:48.367Z,1.52
2019-05-25T11:31:16.179Z,1.42
2019-05-25T11:33:43.723Z,1.32
2019-05-25T11:36:11.442Z,1.20
2019-05-25T11:38:38.907Z,1.02
2019-05-25T11:41:06.703Z,1.30
2019-05-25T11:43:34.531Z,0.98
2019-05-25T11:46:02.192Z,0.78
2019-05-25T11:48:30.510Z,1.20
2019-05-25T11:50:58.115Z,1.80
2019-05-25T11:53:25.682Z,1.67
2019-05-25T11:55:53.527Z,1.57
2019-05-25T11:58:21.319Z,1.45
2019-05-25T12:00:51.612Z,0.93
2019-05-25T12:03:18.141Z,1.00
2019-05-25T12:05:46.019Z,1.05
2019-05-25T12:08:13.816Z,0.80
2019-05-25T12:10:41.975Z,0.68
2019-05-25T12:13:09.575Z,0.90
2019-05-25T12:15:37.374Z,0.70
2019-05-25T12:18:05.181Z,0.60
2019-05-25T12:20:32.728Z,0.72
2019-05-25T12:23:00.262Z,0.70
2019-05-25T12:25:27.945Z,0.50
2019-05-25T12:27:55.522Z,0.65
2019-05-25T12:30:23.144Z,0.60
2019-05-25T12:32:50.659Z,0.80
2019-05-25T12:35:18.493Z,0.90
2019-05-25T12:37:46.077Z,0.60
2019-05-25T12:40:14.794Z,0.70
2019-05-25T12:42:45.663Z,0.53
2019-05-25T12:45:12.176Z,0.70
2019-05-25T12:47:40.033Z,0.70
2019-05-25T12:50:07.745Z,0.88
2019-05-25T12:52:35.381Z,0.90
2019-05-25T12:55:03.385Z,0.80
2019-05-25T12:57:31.191Z,1.10
2019-05-25T13:00:14.232Z,1.02
2019-05-25T13:02:28.847Z,0.80
2019-05-25T13:04:56.620Z,0.80
2019-05-25T13:07:24.478Z,0.88
2019-05-25T13:09:52.626Z,0.95
2019-05-25T13:12:20.241Z,0.80
2019-05-25T13:14:48.158Z,0.70
2019-05-25T13:17:15.946Z,1.27
2019-05-25T13:19:43.770Z,0.82
2019-05-25T13:22:11.286Z,0.68
2019-05-25T13:24:39.232Z,0.65
2019-05-25T13:27:06.822Z,0.70
2019-05-25T13:29:34.367Z,0.82
2019-05-25T13:32:02.290Z,0.75
2019-05-25T13:34:29.798Z,0.80
2019-05-25T13:36:57.382Z,0.90
2019-05-25T13:39:25.174Z,1.02
2019-05-25T13:41:52.727Z,1.05
2019-05-25T13:44:20.604Z,0.70
2019-05-25T13:46:48.032Z,0.80
2019-05-25T13:49:15.914Z,0.70
2019-05-25T13:51:44.108Z,0.82
2019-05-25T13:54:11.617Z,0.90
2019-05-25T13:56:39.209Z,1.07
2019-05-25T13:59:06.592Z,1.10
2019-05-25T14:01:34.371Z,0.70
2019-05-25T14:04:02.300Z,0.80
2019-05-25T14:06:30.165Z,0.70
2019-05-25T14:08:57.892Z,1.00
2019-05-25T14:11:25.775Z,1.00
2019-05-25T14:13:53.764Z,1.00
2019-05-25T14:16:21.729Z,1.10
2019-05-25T14:18:49.553Z,1.02
2019-05-25T14:21:17.485Z,0.80
2019-05-25T14:23:44.939Z,0.75
2019-05-25T14:26:12.546Z,0.90
2019-05-25T14:28:39.954Z,1.27
2019-05-25T14:31:07.714Z,1.20
2019-05-25T14:33:35.617Z,0.88
2019-05-25T14:36:03.684Z,0.90
2019-05-25T14:38:31.199Z,0.75
2019-05-25T14:40:58.650Z,0.80
2019-05-25T14:43:26.565Z,0.93
2019-05-25T14:45:54.070Z,1.05
2019-05-25T14:48:21.637Z,0.80
2019-05-25T14:50:49.178Z,0.70
2019-05-25T14:53:16.762Z,0.85
2019-05-25T14:55:44.332Z,0.88
2019-05-25T14:58:12.970Z,0.70
2019-05-25T15:00:40.827Z,1.07
2019-05-25T15:03:08.693Z,1.20
2019-05-25T15:05:36.246Z,1.02
2019-05-25T15:08:03.808Z,0.80
2019-05-25T15:10:31.669Z,0.90
2019-05-25T15:12:59.212Z,1.20
2019-05-25T15:15:26.728Z,1.10
2019-05-25T15:17:54.401Z,1.12
2019-05-25T15:20:21.945Z,1.00
2019-05-25T15:22:49.484Z,1.07
2019-05-25T15:25:17.164Z,1.05
2019-05-25T15:27:44.620Z,0.88
2019-05-25T15:30:12.844Z,1.12
2019-05-25T15:32:40.891Z,0.88
2019-05-25T15:35:08.419Z,1.10
2019-05-25T15:37:36.077Z,1.22
2019-05-25T15:40:06.369Z,1.20
2019-05-25T15:42:33.836Z,1.02
2019-05-25T15:45:02.128Z,1.00
2019-05-25T15:47:30.064Z,0.95
2019-05-25T15:49:57.611Z,1.00
2019-05-25T15:52:25.194Z,1.20
2019-05-25T15:54:53.062Z,1.10
2019-05-25T15:57:21.087Z,1.25
2019-05-25T15:59:48.610Z,1.05
2019-05-25T16:02:16.204Z,1.02
2019-05-25T16:04:43.817Z,1.10
2019-05-25T16:07:11.354Z,1.30
2019-05-25T16:09:38.953Z,1.27
2019-05-25T16:12:06.994Z,2.02
2019-05-25T16:14:34.510Z,1.40
2019-05-25T16:17:02.152Z,1.50
2019-05-25T16:19:29.727Z,1.65
2019-05-25T16:21:57.296Z,1.42
2019-05-25T16:24:24.847Z,2.00
2019-05-25T16:26:52.716Z,2.08
2019-05-25T16:29:20.635Z,2.20
2019-05-25T16:31:48.472Z,1.80
2019-05-25T16:34:16.051Z,1.70
2019-05-25T16:36:43.572Z,2.22
2019-05-25T16:39:11.088Z,2.12
2019-05-25T16:41:38.663Z,1.75
2019-05-25T16:44:06.259Z,1.72
2019-05-25T16:46:34.237Z,2.60
2019-05-25T16:49:01.813Z,2.25
2019-05-25T16:51:30.018Z,2.00
2019-05-25T16:53:57.991Z,1.62
2019-05-25T16:56:25.475Z,1.82
2019-05-25T16:58:53.047Z,1.57
2019-05-25T17:01:21.032Z,1.60
2019-05-25T17:03:48.574Z,1.60
2019-05-25T17:06:16.098Z,1.65
2019-05-25T17:08:43.676Z,2.05
2019-05-25T17:11:11.281Z,2.20
2019-05-25T17:13:38.837Z,2.10
2019-05-25T17:16:06.410Z,1.90
2019-05-25T17:18:34.047Z,2.02
2019-05-25T17:21:01.689Z,2.02
2019-05-25T17:23:29.258Z,2.27
2019-05-25T17:25:57.228Z,2.30
2019-05-25T17:28:24.829Z,2.42
2019-05-25T17:30:52.417Z,2.30
2019-05-25T17:33:20.013Z,2.37
2019-05-25T17:35:47.598Z,2.15
2019-05-25T17:38:15.129Z,2.45
2019-05-25T17:40:43.108Z,2.45
2019-05-25T17:43:10.752Z,2.50
2019-05-25T17:45:38.643Z,2.42
2019-05-25T17:48:06.252Z,2.08
2019-05-25T17:50:33.785Z,2.25
2019-05-25T17:53:01.370Z,2.33
2019-05-25T17:55:29.274Z,2.72
2019-05-25T17:57:57.043Z,2.62
2019-05-25T18:00:46.848Z,2.42
2019-05-25T18:03:14.401Z,2.65
2019-05-25T18:05:42.070Z,2.65
2019-05-25T18:08:09.700Z,3.02
2019-05-25T18:10:51.108Z,3.10
2019-05-25T18:13:06.566Z,3.40
2019-05-25T18:15:34.610Z,3.37
2019-05-25T18:18:02.474Z,4.80
2019-05-25T18:20:30.005Z,3.87
2019-05-25T18:22:57.615Z,3.40
2019-05-25T18:25:25.129Z,3.02
2019-05-25T18:27:52.900Z,4.20
2019-05-25T18:30:22.377Z,3.10
2019-05-25T18:32:50.199Z,3.17
2019-05-25T18:35:17.696Z,3.05
2019-05-25T18:37:45.210Z,3.87
2019-05-25T18:40:14.428Z,3.83
2019-05-25T18:42:42.082Z,3.30
2019-05-25T18:45:10.291Z,4.00
2019-05-25T18:47:38.345Z,3.50
2019-05-25T18:50:06.738Z,3.60
2019-05-25T18:52:34.583Z,3.90
2019-05-25T18:55:02.174Z,3.98
2019-05-25T18:57:29.760Z,3.90
2019-05-25T18:59:57.248Z,4.40
2019-05-25T19:02:24.889Z,4.45
2019-05-25T19:04:59.468Z,4.10
2019-05-25T19:07:22.682Z,4.80
2019-05-25T19:09:50.206Z,4.72
2019-05-25T19:12:18.483Z,4.03
2019-05-25T19:14:46.656Z,4.62
2019-05-25T19:17:14.179Z,3.58
2019-05-25T19:19:41.931Z,3.92
2019-05-25T19:22:09.449Z,4.10
2019-05-25T19:24:37.341Z,4.33
2019-05-25T19:27:04.981Z,3.72
2019-05-25T19:29:32.554Z,3.87
2019-05-25T19:32:00.693Z,4.42
2019-05-25T19:34:28.956Z,4.35
2019-05-25T19:36:57.010Z,3.92
2019-05-25T19:39:25.002Z,4.30
2019-05-25T19:41:53.816Z,4.22
2019-05-25T19:44:21.449Z,4.17
2019-05-25T19:46:49.345Z,4.22
2019-05-25T19:49:16.866Z,4.65
2019-05-25T19:51:44.850Z,4.15
2019-05-25T19:54:12.770Z,4.28
2019-05-25T19:56:40.371Z,4.17
2019-05-25T19:59:08.705Z,4.95
2019-05-25T20:01:36.256Z,3.55
2019-05-25T20:04:04.883Z,4.20
2019-05-25T20:06:33.075Z,3.90
2019-05-25T20:09:00.915Z,4.65
2019-05-25T20:11:28.415Z,4.60
2019-05-25T20:13:56.277Z,4.67
2019-05-25T20:16:25.257Z,5.00
2019-05-25T20:18:53.195Z,4.37
2019-05-25T20:21:21.027Z,4.60
2019-05-25T20:23:48.595Z,4.22
2019-05-25T20:26:16.475Z,4.87
2019-05-25T20:28:44.250Z,4.03
2019-05-25T20:31:12.066Z,4.20
2019-05-25T20:33:39.898Z,4.42
2019-05-25T20:36:07.593Z,4.72
2019-05-25T20:38:35.458Z,3.72
2019-05-25T20:41:03.019Z,4.12
2019-05-25T20:43:30.596Z,4.12
2019-05-25T20:45:58.741Z,4.42
2019-05-25T20:48:26.218Z,4.67
2019-05-25T20:50:54.020Z,4.15
2019-05-25T20:53:21.812Z,4.37
2019-05-25T20:55:49.359Z,4.40
2019-05-25T20:58:17.851Z,4.87
2019-05-25T21:00:45.519Z,4.10
2019-05-25T21:03:13.385Z,3.98
2019-05-25T21:05:50.430Z,4.30
2019-05-25T21:08:10.347Z,4.42
2019-05-25T21:10:37.891Z,4.12
2019-05-25T21:13:05.442Z,4.20
2019-05-25T21:15:33.173Z,4.28
2019-05-25T21:18:01.016Z,4.00
2019-05-25T21:20:28.514Z,4.30
2019-05-25T21:22:55.978Z,3.70
2019-05-25T21:25:23.903Z,3.87
2019-05-25T21:27:51.640Z,3.95
2019-05-25T21:30:38.644Z,4.58
2019-05-25T21:33:06.509Z,4.22
2019-05-25T21:35:34.043Z,4.60
2019-05-25T21:38:01.837Z,4.47
2019-05-25T21:40:29.735Z,4.05
2019-05-25T21:42:57.273Z,4.00
2019-05-25T21:45:25.196Z,3.70
2019-05-25T21:47:56.012Z,4.50
2019-05-25T21:50:22.961Z,3.90
2019-05-25T21:52:50.486Z,3.80
2019-05-25T21:55:18.378Z,3.87
2019-05-25T21:57:46.210Z,4.55
2019-05-25T22:00:18.013Z,4.35
2019-05-25T22:02:45.833Z,4.25
2019-05-25T22:05:13.873Z,4.15
2019-05-25T22:07:42.337Z,4.15
2019-05-25T22:10:10.942Z,4.67
2019-05-25T22:12:40.275Z,4.35
2019-05-25T22:15:09.833Z,4.50
2019-05-25T22:17:38.114Z,4.67
2019-05-25T22:20:05.963Z,3.95
2019-05-25T22:22:33.732Z,4.12
2019-05-25T22:25:01.335Z,4.50
2019-05-25T22:27:28.991Z,5.03
2019-05-25T22:29:57.456Z,5.97
2019-05-25T22:32:25.600Z,5.00
2019-05-25T22:34:56.378Z,4.70
2019-05-25T22:37:24.008Z,4.35
2019-05-25T22:39:52.578Z,4.03
2019-05-25T22:42:20.285Z,4.60
2019-05-25T22:44:48.278Z,4.75
2019-05-25T22:47:16.273Z,4.10
2019-05-25T22:49:44.472Z,4.87
2019-05-25T22:52:12.410Z,4.78
2019-05-25T22:54:40.308Z,4.47
2019-05-25T22:57:08.076Z,4.08
2019-05-25T22:59:35.691Z,4.00
2019-05-25T23:02:03.607Z,3.00
2019-05-25T23:04:31.471Z,4.37
2019-05-25T23:06:59.463Z,5.30
2019-05-25T23:09:27.211Z,4.60
2019-05-25T23:11:54.813Z,4.33
2019-05-25T23:14:22.800Z,4.10
2019-05-25T23:16:50.636Z,4.35
2019-05-25T23:19:18.563Z,4.53
2019-05-25T23:21:46.285Z,4.62
2019-05-25T23:24:14.801Z,4.58
2019-05-25T23:26:42.480Z,4.67
2019-05-25T23:29:10.086Z,4.45
2019-05-25T23:31:38.122Z,4.28
2019-05-25T23:34:06.022Z,4.90
2019-05-25T23:36:34.477Z,5.55
2019-05-25T23:39:11.414Z,4.40
2019-05-25T23:41:39.341Z,5.15
2019-05-25T23:44:27.736Z,4.33
2019-05-25T23:46:55.392Z,4.25
2019-05-25T23:49:23.460Z,5.10
2019-05-25T23:51:51.082Z,4.65
2019-05-25T23:54:25.609Z,5.37
2019-05-25T23:56:53.395Z,4.75
2019-05-25T23:59:23.015Z,4.72
